createdAt,value
2022-11-23T00:02:02.811Z,96053.22
2022-11-23T00:04:31.225Z,96042.28
2022-11-23T00:06:59.693Z,96035.28
2022-11-23T00:09:27.970Z,96020.66
2022-11-23T00:11:56.393Z,96028.34
2022-11-23T00:14:24.808Z,96026.44
2022-11-23T00:16:53.161Z,96008.00
2022-11-23T00:19:21.562Z,96006.47
2022-11-23T00:21:49.878Z,96003.63
2022-11-23T00:24:18.245Z,96000.03
2022-11-23T00:26:46.644Z,96007.88
2022-11-23T00:29:15.048Z,96010.66
2022-11-23T00:31:43.424Z,96005.44
2022-11-23T00:34:11.767Z,96017.44
2022-11-23T00:36:41.285Z,96023.84
2022-11-23T00:39:09.885Z,96017.13
2022-11-23T00:41:38.295Z,96028.63
2022-11-23T00:44:06.691Z,96033.91
2022-11-23T00:46:35.299Z,96026.34
2022-11-23T00:49:07.102Z,96029.88
2022-11-23T00:51:36.454Z,96033.69
2022-11-23T00:54:05.803Z,96019.78
2022-11-23T00:56:35.155Z,96026.97
2022-11-23T00:59:03.711Z,96031.81
2022-11-23T01:01:39.780Z,96034.88
2022-11-23T01:04:09.784Z,96043.66
2022-11-23T01:06:39.609Z,96033.72
2022-11-23T01:09:18.692Z,96019.91
2022-11-23T01:11:50.486Z,96024.34
2022-11-23T01:14:18.874Z,96031.97
2022-11-23T01:16:47.296Z,96039.75
2022-11-23T01:19:17.839Z,96032.59
2022-11-23T01:21:49.830Z,96032.72
2022-11-23T01:24:19.712Z,96020.22
2022-11-23T01:26:52.412Z,96029.94
2022-11-23T01:29:23.614Z,96037.56
2022-11-23T01:31:52.514Z,96043.16
2022-11-23T01:34:21.380Z,96039.88
2022-11-23T01:36:51.509Z,96052.69
2022-11-23T01:39:20.037Z,96048.31
2022-11-23T01:41:48.378Z,96039.28
2022-11-23T01:44:31.735Z,96038.81
2022-11-23T01:47:01.458Z,96034.63
2022-11-23T01:49:34.506Z,96033.84
2022-11-23T01:52:07.529Z,96027.13
2022-11-23T01:54:48.922Z,96028.41
2022-11-23T01:57:19.809Z,96038.50
2022-11-23T01:59:48.128Z,96056.94
2022-11-23T02:02:16.629Z,96056.69
2022-11-23T02:04:47.109Z,96051.72
2022-11-23T02:07:16.672Z,96059.56
2022-11-23T02:09:46.094Z,96027.34
2022-11-23T02:12:14.911Z,96035.38
2022-11-23T02:14:44.982Z,96033.69
2022-11-23T02:17:13.771Z,96022.56
2022-11-23T02:19:42.678Z,96010.09
2022-11-23T02:22:16.564Z,96013.28
2022-11-23T02:24:49.633Z,96022.81
2022-11-23T02:27:17.984Z,96022.00
2022-11-23T02:29:46.329Z,96017.50
2022-11-23T02:32:20.203Z,96015.94
2022-11-23T02:34:48.590Z,96021.31
2022-11-23T02:37:17.829Z,96023.69
2022-11-23T02:39:48.118Z,96029.16
2022-11-23T02:42:16.513Z,96030.97
2022-11-23T02:44:47.408Z,96030.97
2022-11-23T02:47:15.813Z,96026.91
2022-11-23T02:49:46.853Z,96032.44
2022-11-23T02:52:17.444Z,96028.72
2022-11-23T02:54:45.740Z,96040.22
2022-11-23T02:57:14.726Z,96032.44
2022-11-23T02:59:46.844Z,96026.22
2022-11-23T03:02:15.170Z,96032.59
2022-11-23T03:04:43.473Z,96036.56
2022-11-23T03:07:11.826Z,96024.53
2022-11-23T03:09:40.607Z,96028.97
2022-11-23T03:12:09.003Z,96020.94
2022-11-23T03:14:39.002Z,96010.09
2022-11-23T03:17:07.531Z,95992.78
2022-11-23T03:19:42.440Z,95972.63
2022-11-23T03:22:12.571Z,95969.28
2022-11-23T03:24:40.907Z,95966.91
2022-11-23T03:27:13.790Z,95947.53
2022-11-23T03:29:42.981Z,95943.88
2022-11-23T03:32:17.195Z,95951.53
2022-11-23T03:34:48.956Z,95933.75
2022-11-23T03:37:19.038Z,95931.84
2022-11-23T03:39:48.754Z,95940.19
2022-11-23T03:42:35.689Z,95926.50
2022-11-23T03:45:04.523Z,95922.03
2022-11-23T03:47:32.917Z,95907.03
2022-11-23T03:50:01.201Z,95918.56
2022-11-23T03:52:32.327Z,95910.94
2022-11-23T03:55:01.230Z,95915.59
2022-11-23T03:57:29.756Z,95918.41
2022-11-23T03:59:58.444Z,95915.72
2022-11-23T04:02:26.771Z,95926.72
2022-11-23T04:05:05.765Z,95928.91
2022-11-23T04:08:03.587Z,95928.00
2022-11-23T04:10:31.937Z,95929.25
2022-11-23T04:13:14.894Z,95919.03
2022-11-23T04:15:43.430Z,95930.44
2022-11-23T04:18:12.099Z,95919.50
2022-11-23T04:20:42.775Z,95924.44
2022-11-23T04:23:13.606Z,95937.84
2022-11-23T04:25:43.664Z,95937.56
2022-11-23T04:28:12.251Z,95938.94
2022-11-23T04:30:40.736Z,95943.38
2022-11-23T04:33:09.056Z,95942.03
2022-11-23T04:35:39.928Z,95935.94
2022-11-23T04:38:08.930Z,95941.34
2022-11-23T04:40:38.551Z,95964.72
2022-11-23T04:43:09.871Z,95961.06
2022-11-23T04:45:40.513Z,95969.88
2022-11-23T04:48:15.200Z,95964.94
2022-11-23T04:50:46.811Z,95989.00
2022-11-23T04:53:22.038Z,95997.47
2022-11-23T04:55:51.508Z,95996.72
2022-11-23T04:58:19.887Z,95992.94
2022-11-23T05:00:52.542Z,95989.22
2022-11-23T05:03:20.891Z,96001.19
2022-11-23T05:05:50.513Z,95995.75
2022-11-23T05:08:19.319Z,95999.69
2022-11-23T05:11:00.208Z,96002.41
2022-11-23T05:13:28.680Z,96012.47
2022-11-23T05:15:58.635Z,96002.88
2022-11-23T05:18:29.810Z,96011.06
2022-11-23T05:20:58.152Z,96018.84
2022-11-23T05:23:28.218Z,96021.22
2022-11-23T05:25:56.927Z,96019.59
2022-11-23T05:28:42.016Z,96029.66
2022-11-23T05:31:14.670Z,96031.94
2022-11-23T05:33:46.438Z,96033.09
2022-11-23T05:36:16.920Z,96034.63
2022-11-23T05:38:45.270Z,96033.41
2022-11-23T05:41:20.251Z,96036.00
2022-11-23T05:43:51.683Z,96034.88
2022-11-23T05:46:27.710Z,96047.31
2022-11-23T05:48:56.434Z,96039.47
2022-11-23T05:51:26.700Z,96042.47
2022-11-23T05:53:57.370Z,96045.63
2022-11-23T05:56:38.930Z,96039.53
2022-11-23T05:59:29.057Z,96035.59
2022-11-23T06:02:02.973Z,96038.91
2022-11-23T06:04:34.101Z,96028.19
2022-11-23T06:07:02.448Z,96025.91
2022-11-23T06:10:03.114Z,96044.03
2022-11-23T06:12:34.299Z,96031.91
2022-11-23T06:15:05.807Z,96024.28
2022-11-23T06:17:35.827Z,96025.38
2022-11-23T06:20:07.877Z,96030.13
2022-11-23T06:22:41.280Z,96024.50
2022-11-23T06:25:10.946Z,96026.97
2022-11-23T06:28:00.209Z,96024.22
2022-11-23T06:30:36.476Z,96023.03
2022-11-23T06:33:08.958Z,96015.06
2022-11-23T06:35:59.362Z,96035.03
2022-11-23T06:38:32.882Z,96031.66
2022-11-23T06:41:05.544Z,96034.84
2022-11-23T06:43:33.944Z,96041.47
2022-11-23T06:46:09.207Z,96036.00
2022-11-23T06:48:44.886Z,96031.06
2022-11-23T06:51:15.282Z,96033.09
2022-11-23T06:53:44.975Z,96037.66
2022-11-23T06:56:15.819Z,96020.19
2022-11-23T06:58:44.288Z,96029.84
2022-11-23T07:01:18.561Z,96021.22
2022-11-23T07:03:56.373Z,96028.16
2022-11-23T07:06:32.101Z,96027.75
2022-11-23T07:09:05.350Z,96035.81
2022-11-23T07:11:44.989Z,96036.28
2022-11-23T07:14:14.195Z,96042.00
2022-11-23T07:16:46.892Z,96046.56
2022-11-23T07:19:16.080Z,96044.25
2022-11-23T07:21:46.227Z,96047.75
2022-11-23T07:24:14.595Z,96054.91
2022-11-23T07:26:43.007Z,96034.09
2022-11-23T07:29:11.991Z,96032.34
2022-11-23T07:31:40.551Z,96035.09
2022-11-23T07:34:11.352Z,96035.38
2022-11-23T07:36:39.858Z,96040.84
2022-11-23T07:39:08.354Z,96044.75
2022-11-23T07:41:37.896Z,96032.88
2022-11-23T07:44:09.689Z,96037.25
2022-11-23T07:46:38.074Z,96043.19
2022-11-23T07:49:07.072Z,96045.44
2022-11-23T07:51:35.379Z,96042.41
2022-11-23T07:54:03.899Z,96028.50
2022-11-23T07:56:32.172Z,96036.78
2022-11-23T07:59:00.560Z,96039.38
2022-11-23T08:01:30.428Z,96044.00
2022-11-23T08:03:59.480Z,96042.97
2022-11-23T08:06:27.872Z,96041.44
2022-11-23T08:08:56.332Z,96041.69
2022-11-23T08:11:26.429Z,96045.03
2022-11-23T08:13:55.235Z,96058.41
2022-11-23T08:16:23.699Z,96049.50
2022-11-23T08:18:52.120Z,96042.22
2022-11-23T08:21:20.462Z,96043.44
2022-11-23T08:23:48.823Z,96036.09
2022-11-23T08:26:17.173Z,96044.78
2022-11-23T08:28:45.856Z,96038.03
2022-11-23T08:31:15.519Z,96040.47
2022-11-23T08:33:44.415Z,96029.75
2022-11-23T08:36:12.758Z,96024.50
2022-11-23T08:38:41.249Z,96034.13
2022-11-23T08:41:09.983Z,96032.19
2022-11-23T08:43:38.484Z,96034.28
2022-11-23T08:46:10.884Z,96031.56
2022-11-23T08:48:39.640Z,96029.66
2022-11-23T08:51:07.974Z,96024.31
2022-11-23T08:53:37.190Z,96027.88
2022-11-23T08:56:06.616Z,96029.66
2022-11-23T08:58:35.654Z,96027.28
2022-11-23T09:01:11.117Z,96034.88
2022-11-23T09:03:39.684Z,96018.84
2022-11-23T09:06:09.028Z,96013.22
2022-11-23T09:08:37.553Z,96020.31
2022-11-23T09:11:07.324Z,96025.44
2022-11-23T09:13:37.519Z,96025.81
2022-11-23T09:16:06.518Z,96024.72
2022-11-23T09:18:36.114Z,96025.13
2022-11-23T09:21:05.121Z,96016.19
2022-11-23T09:23:33.720Z,96014.41
2022-11-23T09:26:02.908Z,96009.66
2022-11-23T09:28:31.930Z,96003.19
2022-11-23T09:31:02.915Z,96009.47
2022-11-23T09:33:31.365Z,96003.84
2022-11-23T09:36:03.082Z,96006.00
2022-11-23T09:38:55.112Z,95994.59
2022-11-23T09:41:43.295Z,95997.28
2022-11-23T09:44:15.473Z,95995.72
2022-11-23T09:47:05.920Z,95996.28
2022-11-23T09:49:57.602Z,95981.81
2022-11-23T09:52:26.080Z,95973.34
2022-11-23T09:54:57.389Z,95982.56
2022-11-23T09:57:28.380Z,95976.41
2022-11-23T10:00:06.120Z,95974.59
2022-11-23T10:02:40.302Z,95980.53
2022-11-23T10:05:17.963Z,95976.28
2022-11-23T10:08:18.255Z,95971.56
2022-11-23T10:11:01.677Z,95973.78
2022-11-23T10:13:38.204Z,95969.97
2022-11-23T10:16:23.108Z,95962.81
2022-11-23T10:19:01.991Z,95966.53
2022-11-23T10:21:52.469Z,95967.03
2022-11-23T10:24:25.234Z,95962.28
2022-11-23T10:26:53.624Z,95954.81
2022-11-23T10:29:35.803Z,95962.75
2022-11-23T10:32:13.193Z,95946.19
2022-11-23T10:35:09.279Z,95957.91
2022-11-23T10:37:38.600Z,95963.94
2022-11-23T10:40:28.616Z,95958.22
2022-11-23T10:42:59.873Z,95958.06
2022-11-23T10:45:29.688Z,95956.31
2022-11-23T10:48:03.029Z,95964.78
2022-11-23T10:50:37.895Z,95952.38
2022-11-23T10:53:08.755Z,95959.81
2022-11-23T10:55:47.737Z,95949.47
2022-11-23T10:58:31.655Z,95947.94
2022-11-23T11:01:25.905Z,95949.88
2022-11-23T11:03:55.255Z,95942.50
2022-11-23T11:06:31.209Z,95946.72
2022-11-23T11:09:03.395Z,95944.69
2022-11-23T11:11:36.633Z,95945.56
2022-11-23T11:14:06.339Z,95951.75
2022-11-23T11:16:38.590Z,95944.84
2022-11-23T11:19:28.763Z,95951.78
2022-11-23T11:21:58.131Z,95951.78
2022-11-23T11:24:48.899Z,95948.44
2022-11-23T11:27:27.220Z,95949.53
2022-11-23T11:29:57.177Z,95939.06
2022-11-23T11:32:41.175Z,95951.97
2022-11-23T11:35:29.163Z,95933.66
2022-11-23T11:38:01.305Z,95936.28
2022-11-23T11:40:49.658Z,95931.53
2022-11-23T11:43:32.372Z,95930.94
2022-11-23T11:46:28.041Z,95921.41
2022-11-23T11:49:38.478Z,95924.22
2022-11-23T11:52:12.386Z,95915.44
2022-11-23T11:54:44.808Z,95925.47
2022-11-23T11:57:18.503Z,95916.03
2022-11-23T11:59:50.469Z,95923.03
2022-11-23T12:02:25.711Z,95915.59
2022-11-23T12:05:20.602Z,95911.69
2022-11-23T12:08:08.868Z,95909.19
2022-11-23T12:10:46.042Z,95915.00
2022-11-23T12:13:22.732Z,95921.94
2022-11-23T12:16:16.641Z,95925.91
2022-11-23T12:19:08.877Z,95923.72
2022-11-23T12:22:10.637Z,95934.31
2022-11-23T12:24:52.154Z,95929.84
2022-11-23T12:27:43.400Z,95929.81
2022-11-23T12:30:35.100Z,95935.47
2022-11-23T12:33:12.909Z,95930.94
2022-11-23T12:36:03.011Z,95933.34
2022-11-23T12:38:32.319Z,95930.72
2022-11-23T12:41:26.288Z,95924.16
2022-11-23T12:44:13.419Z,95936.47
2022-11-23T12:47:21.181Z,95928.47
2022-11-23T12:50:20.567Z,95937.63
2022-11-23T12:52:57.527Z,95933.16
2022-11-23T12:55:40.169Z,95930.66
2022-11-23T12:58:18.247Z,95918.47
2022-11-23T13:00:52.753Z,95921.16
2022-11-23T13:03:51.068Z,95930.50
2022-11-23T13:07:05.677Z,95937.84
2022-11-23T13:09:42.827Z,95937.88
2022-11-23T13:12:14.214Z,95938.09
2022-11-23T13:15:17.756Z,95934.19
2022-11-23T13:17:55.929Z,95936.00
2022-11-23T13:20:50.568Z,95929.47
2022-11-23T13:23:21.981Z,95942.69
2022-11-23T13:26:12.497Z,95937.25
2022-11-23T13:28:40.977Z,95938.47
2022-11-23T13:31:16.045Z,95945.03
2022-11-23T13:33:46.004Z,95948.78
2022-11-23T13:37:11.750Z,95955.47
2022-11-23T13:39:46.102Z,95943.69
2022-11-23T13:42:14.584Z,95959.06
2022-11-23T13:44:43.023Z,95956.47
2022-11-23T13:47:16.277Z,95955.19
2022-11-23T13:49:51.976Z,95956.19
2022-11-23T13:52:23.967Z,95978.47
2022-11-23T13:55:05.617Z,95976.16
2022-11-23T13:57:42.145Z,95975.66
2022-11-23T14:00:48.939Z,95973.16
2022-11-23T14:03:56.232Z,95979.81
2022-11-23T14:06:48.471Z,95976.47
2022-11-23T14:09:37.115Z,95989.22
2022-11-23T14:12:12.865Z,95986.53
2022-11-23T14:14:41.275Z,95987.84
2022-11-23T14:17:30.021Z,95992.81
2022-11-23T14:20:09.235Z,96003.56
2022-11-23T14:22:52.722Z,95994.91
2022-11-23T14:25:51.732Z,95987.19
2022-11-23T14:28:59.779Z,95991.72
2022-11-23T14:32:07.212Z,95996.47
2022-11-23T14:34:51.749Z,95992.88
2022-11-23T14:37:52.077Z,96000.75
2022-11-23T14:40:46.404Z,95995.47
2022-11-23T14:43:19.288Z,96008.31
2022-11-23T14:45:47.833Z,96009.81
2022-11-23T14:48:32.706Z,96009.72
2022-11-23T14:51:05.695Z,96008.31
2022-11-23T14:53:36.841Z,96009.88
2022-11-23T14:56:05.424Z,96008.91
2022-11-23T14:58:35.014Z,96005.66
2022-11-23T15:01:03.796Z,96009.22
2022-11-23T15:03:51.243Z,96011.84
2022-11-23T15:06:21.546Z,96019.69
2022-11-23T15:09:04.972Z,96007.72
2022-11-23T15:11:33.653Z,96010.22
2022-11-23T15:14:04.980Z,96015.38
2022-11-23T15:16:40.365Z,96014.81
2022-11-23T15:19:24.132Z,96015.56
2022-11-23T15:21:52.581Z,96012.69
2022-11-23T15:24:25.404Z,96020.44
2022-11-23T15:26:53.919Z,96024.19
2022-11-23T15:29:33.799Z,96022.38
2022-11-23T15:32:29.439Z,96022.09
2022-11-23T15:34:55.085Z,96026.16
2022-11-23T15:37:24.018Z,96022.63
2022-11-23T15:39:52.955Z,96025.69
2022-11-23T15:42:23.878Z,96023.91
2022-11-23T15:44:53.894Z,96021.06
2022-11-23T15:47:27.512Z,96028.28
2022-11-23T15:50:08.573Z,96029.59
2022-11-23T15:52:38.047Z,96025.94
2022-11-23T15:55:10.418Z,96033.97
2022-11-23T15:57:39.005Z,96036.31
2022-11-23T16:00:07.947Z,96039.63
2022-11-23T16:02:42.039Z,96034.97
2022-11-23T16:05:38.226Z,96026.41
2022-11-23T16:08:25.603Z,96033.13
2022-11-23T16:10:54.953Z,96036.28
2022-11-23T16:13:39.972Z,96041.44
2022-11-23T16:16:21.840Z,96045.56
2022-11-23T16:18:58.518Z,96039.59
2022-11-23T16:21:29.275Z,96036.84
2022-11-23T16:23:57.877Z,96045.78
2022-11-23T16:26:32.959Z,96051.19
2022-11-23T16:29:01.812Z,96051.34
2022-11-23T16:31:40.461Z,96048.09
2022-11-23T16:34:18.380Z,96053.63
2022-11-23T16:36:50.211Z,96062.53
2022-11-23T16:39:18.839Z,96067.78
2022-11-23T16:41:47.391Z,96065.16
2022-11-23T16:44:18.959Z,96063.63
2022-11-23T16:46:48.901Z,96065.16
2022-11-23T16:49:22.181Z,96073.88
2022-11-23T16:51:57.104Z,96070.53
2022-11-23T16:54:25.861Z,96072.91
2022-11-23T16:56:54.396Z,96088.47
2022-11-23T16:59:24.073Z,96091.31
2022-11-23T17:01:57.046Z,96095.56
2022-11-23T17:04:26.587Z,96103.72
2022-11-23T17:06:55.047Z,96111.34
2022-11-23T17:09:24.836Z,96106.69
2022-11-23T17:11:53.359Z,96107.34
2022-11-23T17:14:29.093Z,96104.97
2022-11-23T17:17:03.459Z,96110.63
2022-11-23T17:19:34.748Z,96108.44
2022-11-23T17:22:04.056Z,96110.38
2022-11-23T17:24:33.903Z,96112.81
2022-11-23T17:27:02.776Z,96115.47
2022-11-23T17:29:32.104Z,96123.63
2022-11-23T17:32:10.887Z,96125.38
2022-11-23T17:34:41.396Z,96126.66
2022-11-23T17:37:23.903Z,96132.56
2022-11-23T17:39:53.404Z,96128.28
2022-11-23T17:42:31.819Z,96134.47
2022-11-23T17:45:01.671Z,96138.75
2022-11-23T17:47:30.488Z,96136.81
2022-11-23T17:50:00.460Z,96140.72
2022-11-23T17:52:28.854Z,96155.59
2022-11-23T17:54:57.358Z,96152.16
2022-11-23T17:57:26.844Z,96142.09
2022-11-23T17:59:58.210Z,96152.94
2022-11-23T18:02:31.150Z,96161.19
2022-11-23T18:04:59.594Z,96159.00
2022-11-23T18:07:28.984Z,96159.94
2022-11-23T18:09:58.896Z,96168.69
2022-11-23T18:12:27.343Z,96164.13
2022-11-23T18:15:05.687Z,96171.19
2022-11-23T18:17:38.089Z,96168.88
2022-11-23T18:20:08.545Z,96178.53
2022-11-23T18:22:42.536Z,96182.06
2022-11-23T18:25:12.350Z,96183.59
2022-11-23T18:27:40.887Z,96173.84
2022-11-23T18:30:10.455Z,96175.44
2022-11-23T18:32:41.179Z,96177.44
2022-11-23T18:35:10.365Z,96180.66
2022-11-23T18:37:38.841Z,96200.41
2022-11-23T18:40:10.554Z,96191.94
2022-11-23T18:42:40.911Z,96190.47
2022-11-23T18:45:12.249Z,96194.47
2022-11-23T18:47:41.595Z,96197.59
2022-11-23T18:50:10.193Z,96192.13
2022-11-23T18:52:39.091Z,96205.41
2022-11-23T18:55:13.233Z,96190.28
2022-11-23T18:57:42.147Z,96200.25
2022-11-23T19:00:17.682Z,96204.38
2022-11-23T19:02:57.884Z,96191.09
2022-11-23T19:05:26.619Z,96195.31
2022-11-23T19:07:57.938Z,96198.94
2022-11-23T19:10:28.260Z,96193.16
2022-11-23T19:13:03.723Z,96196.06
2022-11-23T19:15:34.599Z,96190.69
2022-11-23T19:18:03.712Z,96183.47
2022-11-23T19:20:32.592Z,96195.69
2022-11-23T19:23:02.322Z,96194.19
2022-11-23T19:25:38.737Z,96201.59
2022-11-23T19:28:07.624Z,96185.84
2022-11-23T19:30:38.396Z,96192.22
2022-11-23T19:33:06.868Z,96193.22
2022-11-23T19:35:35.453Z,96190.25
2022-11-23T19:38:03.825Z,96205.94
2022-11-23T19:40:43.295Z,96209.88
2022-11-23T19:43:11.669Z,96220.03
2022-11-23T19:45:40.191Z,96216.09
2022-11-23T19:48:11.751Z,96206.22
2022-11-23T19:50:42.778Z,96206.44
2022-11-23T19:53:12.989Z,96215.78
2022-11-23T19:55:44.363Z,96218.44
2022-11-23T19:58:13.723Z,96211.28
2022-11-23T20:00:48.296Z,96226.69
2022-11-23T20:03:17.956Z,96234.59
2022-11-23T20:06:00.162Z,96229.53
2022-11-23T20:08:28.670Z,96233.31
2022-11-23T20:10:57.823Z,96239.78
2022-11-23T20:13:26.394Z,96243.63
2022-11-23T20:15:55.726Z,96245.63
2022-11-23T20:18:29.982Z,96247.34
2022-11-23T20:20:58.525Z,96252.94
2022-11-23T20:23:31.128Z,96259.09
2022-11-23T20:25:59.583Z,96262.47
2022-11-23T20:28:28.658Z,96257.28
2022-11-23T20:31:04.021Z,96269.03
2022-11-23T20:33:32.421Z,96271.16
2022-11-23T20:36:15.137Z,96281.88
2022-11-23T20:38:43.747Z,96279.00
2022-11-23T20:41:19.681Z,96277.09
2022-11-23T20:43:49.568Z,96277.44
2022-11-23T20:46:32.086Z,96280.69
2022-11-23T20:49:06.495Z,96284.81
2022-11-23T20:51:34.925Z,96279.72
2022-11-23T20:54:03.608Z,96291.16
2022-11-23T20:56:33.144Z,96288.59
2022-11-23T20:59:01.592Z,96295.16
2022-11-23T21:01:30.239Z,96289.56
2022-11-23T21:03:59.429Z,96292.81
2022-11-23T21:06:28.797Z,96305.22
2022-11-23T21:08:57.303Z,96293.22
2022-11-23T21:11:45.786Z,96300.31
2022-11-23T21:14:21.953Z,96303.75
2022-11-23T21:16:55.358Z,96301.00
2022-11-23T21:19:27.711Z,96293.03
2022-11-23T21:21:59.432Z,96301.81
2022-11-23T21:24:29.341Z,96288.66
2022-11-23T21:26:57.919Z,96290.75
2022-11-23T21:29:30.311Z,96297.53
2022-11-23T21:31:58.833Z,96289.41
2022-11-23T21:34:28.652Z,96306.41
2022-11-23T21:36:57.400Z,96296.09
2022-11-23T21:39:25.893Z,96302.38
2022-11-23T21:41:54.435Z,96311.34
2022-11-23T21:44:23.056Z,96301.56
2022-11-23T21:46:51.631Z,96307.81
2022-11-23T21:49:20.052Z,96295.25
2022-11-23T21:51:48.481Z,96293.72
2022-11-23T21:54:16.850Z,96291.38
2022-11-23T21:56:47.867Z,96292.25
2022-11-23T21:59:16.152Z,96302.38
2022-11-23T22:01:44.553Z,96297.50
2022-11-23T22:04:13.618Z,96295.22
2022-11-23T22:06:42.466Z,96283.63
2022-11-23T22:09:10.929Z,96299.13
2022-11-23T22:11:41.428Z,96296.16
2022-11-23T22:14:12.092Z,96294.66
2022-11-23T22:16:49.976Z,96299.69
2022-11-23T22:19:19.131Z,96303.16
2022-11-23T22:21:47.660Z,96303.19
2022-11-23T22:24:17.524Z,96301.88
2022-11-23T22:26:46.531Z,96292.38
2022-11-23T22:29:16.142Z,96296.75
2022-11-23T22:31:45.202Z,96291.50
2022-11-23T22:34:13.938Z,96296.53
2022-11-23T22:36:42.424Z,96301.91
2022-11-23T22:39:10.855Z,96307.25
2022-11-23T22:41:39.691Z,96306.19
2022-11-23T22:44:09.611Z,96301.72
2022-11-23T22:46:39.010Z,96310.75
2022-11-23T22:49:08.204Z,96318.06
2022-11-23T22:51:36.620Z,96314.06
2022-11-23T22:54:05.176Z,96324.06
2022-11-23T22:56:33.620Z,96321.78
2022-11-23T22:59:01.948Z,96314.13
2022-11-23T23:01:30.939Z,96319.00
2022-11-23T23:04:01.767Z,96319.78
2022-11-23T23:06:33.870Z,96313.75
2022-11-23T23:09:02.983Z,96326.47
2022-11-23T23:11:32.449Z,96328.59
2022-11-23T23:14:00.988Z,96321.72
2022-11-23T23:16:30.370Z,96327.28
2022-11-23T23:18:59.605Z,96321.50
2022-11-23T23:21:28.890Z,96324.28
2022-11-23T23:23:59.042Z,96322.81
2022-11-23T23:26:27.948Z,96318.75
2022-11-23T23:29:00.069Z,96315.25
2022-11-23T23:31:28.648Z,96318.31
2022-11-23T23:33:57.383Z,96318.78
2022-11-23T23:36:25.790Z,96318.16
2022-11-23T23:38:54.112Z,96314.91
2022-11-23T23:41:22.543Z,96320.50
2022-11-23T23:43:51.069Z,96331.09
2022-11-23T23:46:20.145Z,96318.91
2022-11-23T23:48:48.572Z,96325.91
2022-11-23T23:51:23.815Z,96328.69
2022-11-23T23:53:53.565Z,96324.19
2022-11-23T23:56:26.659Z,96328.41
2022-11-23T23:58:56.876Z,96339.09
